createdAt,value
2023-02-28T00:00:13.878Z,67010.31
2023-02-28T00:02:41.697Z,67014.69
2023-02-28T00:05:09.775Z,67003.44
2023-02-28T00:07:37.233Z,67002.91
2023-02-28T00:10:08.599Z,66998.41
2023-02-28T00:12:35.908Z,66995.75
2023-02-28T00:15:06.044Z,66982.84
2023-02-28T00:17:33.285Z,66987.53
2023-02-28T00:20:12.918Z,66980.03
2023-02-28T00:22:41.164Z,66964.53
2023-02-28T00:25:08.737Z,66958.16
2023-02-28T00:27:36.693Z,66952.19
2023-02-28T00:30:06.367Z,66952.00
2023-02-28T00:32:33.660Z,66905.91
2023-02-28T00:35:02.258Z,66901.97
2023-02-28T00:37:29.463Z,66944.16
2023-02-28T00:39:57.226Z,66930.88
2023-02-28T00:42:24.597Z,66932.78
2023-02-28T00:44:51.855Z,66928.66
2023-02-28T00:47:18.999Z,66921.94
2023-02-28T00:49:46.292Z,66928.09
2023-02-28T00:52:13.408Z,66930.88
2023-02-28T00:54:40.505Z,66933.47
2023-02-28T00:57:08.436Z,66921.72
2023-02-28T00:59:36.184Z,66916.31
2023-02-28T01:02:03.244Z,66917.78
2023-02-28T01:04:30.535Z,66910.91
2023-02-28T01:06:57.631Z,66905.66
2023-02-28T01:09:24.780Z,66897.47
2023-02-28T01:11:51.840Z,66894.25
2023-02-28T01:14:19.486Z,66886.03
2023-02-28T01:16:46.666Z,66882.69
2023-02-28T01:19:14.046Z,66862.50
2023-02-28T01:21:41.053Z,66853.53
2023-02-28T01:24:08.383Z,66867.34
2023-02-28T01:26:36.441Z,66855.00
2023-02-28T01:29:04.104Z,66851.63
2023-02-28T01:31:31.554Z,66871.81
2023-02-28T01:33:59.344Z,66868.69
2023-02-28T01:36:29.397Z,66871.81
2023-02-28T01:38:56.931Z,66877.41
2023-02-28T01:41:26.347Z,66871.47
2023-02-28T01:43:56.197Z,66869.44
2023-02-28T01:46:23.491Z,66868.44
2023-02-28T01:49:00.861Z,66863.06
2023-02-28T01:51:28.250Z,66857.25
2023-02-28T01:54:06.796Z,66847.94
2023-02-28T01:56:36.933Z,66842.34
2023-02-28T01:59:05.874Z,66841.78
2023-02-28T02:01:33.179Z,66839.94
2023-02-28T02:04:03.463Z,66845.13
2023-02-28T02:06:32.220Z,66854.66
2023-02-28T02:08:59.346Z,66853.75
2023-02-28T02:11:27.096Z,66855.56
2023-02-28T02:14:04.518Z,66849.81
2023-02-28T02:16:47.087Z,66855.00
2023-02-28T02:19:14.154Z,66843.13
2023-02-28T02:21:59.577Z,66853.88
2023-02-28T02:24:42.552Z,66838.63
2023-02-28T02:27:12.868Z,66832.25
2023-02-28T02:29:48.198Z,66836.53
2023-02-28T02:32:21.435Z,66840.88
2023-02-28T02:34:58.156Z,66848.50
2023-02-28T02:37:33.320Z,66834.91
2023-02-28T02:40:04.729Z,66836.94
2023-02-28T02:42:34.386Z,66827.00
2023-02-28T02:45:04.087Z,66817.69
2023-02-28T02:47:33.281Z,66816.34
2023-02-28T02:50:02.221Z,66817.47
2023-02-28T02:52:38.292Z,66767.75
2023-02-28T02:55:08.610Z,66813.75
2023-02-28T02:57:43.951Z,66789.19
2023-02-28T03:00:11.918Z,66840.28
2023-02-28T03:02:40.308Z,66829.66
2023-02-28T03:05:18.700Z,66786.03
2023-02-28T03:07:45.856Z,66823.84
2023-02-28T03:10:49.081Z,66826.06
2023-02-28T03:13:29.907Z,66834.84
2023-02-28T03:16:02.674Z,66833.72
2023-02-28T03:18:37.461Z,66844.91
2023-02-28T03:21:20.011Z,66837.28
2023-02-28T03:23:49.192Z,66832.25
2023-02-28T03:26:21.726Z,66829.44
2023-02-28T03:29:02.177Z,66834.84
2023-02-28T03:31:36.592Z,66832.56
2023-02-28T03:34:06.736Z,66815.09
2023-02-28T03:36:37.575Z,66804.78
2023-02-28T03:39:09.642Z,66800.88
2023-02-28T03:41:41.830Z,66800.88
2023-02-28T03:44:17.868Z,66791.56
2023-02-28T03:46:49.449Z,66787.44
2023-02-28T03:49:19.909Z,66782.72
2023-02-28T03:51:48.224Z,66727.25
2023-02-28T03:54:19.821Z,66759.66
2023-02-28T03:56:54.046Z,66750.13
2023-02-28T03:59:29.783Z,66751.38
2023-02-28T04:01:59.406Z,66744.31
2023-02-28T04:04:26.870Z,66744.31
2023-02-28T04:07:01.434Z,66737.81
2023-02-28T04:09:28.851Z,66735.34
2023-02-28T04:11:58.980Z,66738.94
2023-02-28T04:14:26.166Z,66739.81
2023-02-28T04:16:53.452Z,66733.69
2023-02-28T04:19:20.588Z,66719.69
2023-02-28T04:21:49.334Z,66717.44
2023-02-28T04:24:18.250Z,66713.88
2023-02-28T04:26:47.038Z,66666.47
2023-02-28T04:29:14.976Z,66710.72
2023-02-28T04:31:42.150Z,66702.00
2023-02-28T04:34:09.359Z,66690.00
2023-02-28T04:36:36.451Z,66677.03
2023-02-28T04:39:05.052Z,66686.66
2023-02-28T04:41:32.936Z,66695.41
2023-02-28T04:44:00.442Z,66688.34
2023-02-28T04:46:27.731Z,66684.41
2023-02-28T04:48:55.603Z,66670.09
2023-02-28T04:51:23.150Z,66669.53
2023-02-28T04:53:50.205Z,66690.25
2023-02-28T04:56:18.121Z,66682.75
2023-02-28T04:58:45.551Z,66676.94
2023-02-28T05:01:26.366Z,66679.16
2023-02-28T05:03:54.377Z,66688.69
2023-02-28T05:06:22.368Z,66703.25
2023-02-28T05:08:49.488Z,66713.53
2023-02-28T05:11:21.405Z,66706.25
2023-02-28T05:13:49.129Z,66702.34
2023-02-28T05:16:16.625Z,66692.81
2023-02-28T05:18:43.750Z,66645.22
2023-02-28T05:21:31.264Z,66698.19
2023-02-28T05:23:59.933Z,66682.19
2023-02-28T05:26:27.856Z,66673.44
2023-02-28T05:28:55.287Z,66663.72
2023-02-28T05:31:22.993Z,66651.41
2023-02-28T05:33:50.136Z,66653.44
2023-02-28T05:36:17.330Z,66654.53
2023-02-28T05:38:46.599Z,66647.28
2023-02-28T05:41:13.684Z,66650.63
2023-02-28T05:43:40.822Z,66637.31
2023-02-28T05:46:08.886Z,66642.81
2023-02-28T05:48:39.665Z,66629.25
2023-02-28T05:51:08.408Z,66629.03
2023-02-28T05:53:37.619Z,66638.88
2023-02-28T05:56:06.904Z,66648.63
2023-02-28T05:58:35.864Z,66653.66
2023-02-28T06:01:29.358Z,66644.13
2023-02-28T06:03:56.746Z,66647.84
2023-02-28T06:06:23.674Z,66651.63
2023-02-28T06:08:50.521Z,66664.06
2023-02-28T06:11:17.425Z,66622.88
2023-02-28T06:13:44.415Z,66674.34
2023-02-28T06:16:12.566Z,66690.34
2023-02-28T06:18:39.885Z,66700.09
2023-02-28T06:21:06.888Z,66703.44
2023-02-28T06:23:33.749Z,66701.00
2023-02-28T06:26:00.650Z,66692.59
2023-02-28T06:28:27.603Z,66696.75
2023-02-28T06:30:54.501Z,66665.72
2023-02-28T06:33:21.444Z,66711.63
2023-02-28T06:35:50.987Z,66712.75
2023-02-28T06:38:21.211Z,66706.47
2023-02-28T06:40:54.078Z,66704.22
2023-02-28T06:43:21.040Z,66715.00
2023-02-28T06:45:47.904Z,66709.28
2023-02-28T06:48:14.760Z,66697.72
2023-02-28T06:50:41.655Z,66700.88
2023-02-28T06:53:08.493Z,66708.50
2023-02-28T06:55:35.358Z,66718.91
2023-02-28T06:58:02.297Z,66726.97
2023-02-28T07:00:29.423Z,66688.66
2023-02-28T07:02:57.350Z,66746.91
2023-02-28T07:05:26.840Z,66752.16
2023-02-28T07:07:53.824Z,66756.63
2023-02-28T07:10:21.414Z,66763.00
2023-02-28T07:12:48.416Z,66790.59
2023-02-28T07:15:15.353Z,66789.34
2023-02-28T07:17:42.233Z,66801.78
2023-02-28T07:20:09.452Z,66819.91
2023-02-28T07:22:36.348Z,66824.19
2023-02-28T07:25:03.320Z,66827.41
2023-02-28T07:27:30.241Z,66855.22
2023-02-28T07:29:57.295Z,66886.59
2023-02-28T07:32:24.449Z,66898.38
2023-02-28T07:34:51.586Z,66933.47
2023-02-28T07:37:18.483Z,66931.66
2023-02-28T07:39:49.886Z,66933.34
2023-02-28T07:42:16.918Z,66952.78
2023-02-28T07:44:44.793Z,66974.63
2023-02-28T07:47:11.769Z,67005.63
2023-02-28T07:49:39.346Z,67010.91
2023-02-28T07:52:07.569Z,67008.50
2023-02-28T07:54:35.576Z,67027.22
2023-02-28T07:57:07.210Z,67042.19
2023-02-28T07:59:34.058Z,67047.56
2023-02-28T08:02:01.093Z,67051.50
2023-02-28T08:04:28.058Z,67068.91
2023-02-28T08:06:55.141Z,67088.78
2023-02-28T08:09:24.749Z,67088.22
2023-02-28T08:11:52.608Z,67071.38
2023-02-28T08:14:19.745Z,67104.06
2023-02-28T08:16:46.581Z,67105.06
2023-02-28T08:19:13.457Z,67127.88
2023-02-28T08:21:40.915Z,67140.44
2023-02-28T08:24:07.896Z,67151.47
2023-02-28T08:26:37.907Z,67150.91
2023-02-28T08:29:04.794Z,67154.28
2023-02-28T08:31:32.120Z,67145.84
2023-02-28T08:34:00.311Z,67131.66
2023-02-28T08:36:29.632Z,67107.31
2023-02-28T08:38:57.685Z,67111.78
2023-02-28T08:41:25.358Z,67138.19
2023-02-28T08:43:52.706Z,67172.25
2023-02-28T08:46:19.606Z,67181.03
2023-02-28T08:48:47.045Z,67166.84
2023-02-28T08:51:14.993Z,67168.88
2023-02-28T08:53:41.898Z,67184.63
2023-02-28T08:56:10.805Z,67178.84
2023-02-28T08:58:37.792Z,67156.53
2023-02-28T09:01:16.797Z,67165.88
2023-02-28T09:03:44.153Z,67170.00
2023-02-28T09:06:11.189Z,67179.56
2023-02-28T09:08:38.223Z,67206.31
2023-02-28T09:11:05.192Z,67205.06
2023-02-28T09:13:33.304Z,67234.28
2023-02-28T09:16:01.180Z,67223.16
2023-02-28T09:18:28.572Z,67238.56
2023-02-28T09:20:55.603Z,67253.16
2023-02-28T09:23:22.930Z,67252.25
2023-02-28T09:25:52.011Z,67280.16
2023-02-28T09:28:19.100Z,67266.88
2023-02-28T09:30:46.968Z,67279.25
2023-02-28T09:33:14.369Z,67316.94
2023-02-28T09:35:41.496Z,67359.28
2023-02-28T09:38:09.736Z,67351.41
2023-02-28T09:40:53.145Z,67378.81
2023-02-28T09:43:23.023Z,67414.28
2023-02-28T09:45:53.387Z,67463.81
2023-02-28T09:48:23.974Z,67471.72
2023-02-28T09:50:53.293Z,67503.03
2023-02-28T09:53:35.171Z,67431.31
2023-02-28T09:56:06.252Z,67387.28
2023-02-28T09:58:37.290Z,67329.88
2023-02-28T10:01:08.432Z,67362.16
2023-02-28T10:03:47.930Z,67328.75
2023-02-28T10:06:17.850Z,67257.31
2023-02-28T10:08:51.762Z,67326.84
2023-02-28T10:11:19.278Z,67370.38
2023-02-28T10:14:06.907Z,67317.28
2023-02-28T10:16:33.787Z,67296.69
2023-02-28T10:19:19.406Z,67315.25
2023-02-28T10:21:55.600Z,67365.31
2023-02-28T10:24:34.038Z,67338.88
2023-02-28T10:27:03.089Z,67290.31
2023-02-28T10:29:32.723Z,67279.06
2023-02-28T10:32:02.109Z,67357.81
2023-02-28T10:34:29.022Z,67346.91
2023-02-28T10:36:56.768Z,67293.66
2023-02-28T10:39:39.897Z,67346.75
2023-02-28T10:42:19.479Z,67351.03
2023-02-28T10:44:46.418Z,67346.19
2023-02-28T10:47:18.404Z,67343.53
2023-02-28T10:49:50.241Z,67326.84
2023-02-28T10:52:33.481Z,67272.16
2023-02-28T10:55:18.975Z,67256.91
2023-02-28T10:57:45.834Z,67240.69
2023-02-28T11:00:18.395Z,67248.13
2023-02-28T11:02:45.635Z,67242.16
2023-02-28T11:05:27.970Z,67281.28
2023-02-28T11:07:56.123Z,67303.44
2023-02-28T11:10:25.800Z,67362.66
2023-02-28T11:12:56.146Z,67321.78
2023-02-28T11:15:30.712Z,67319.31
2023-02-28T11:18:09.569Z,67349.56
2023-02-28T11:20:36.681Z,67369.06
2023-02-28T11:23:05.021Z,67356.09
2023-02-28T11:25:38.011Z,67368.13
2023-02-28T11:28:07.580Z,67293.31
2023-02-28T11:30:39.326Z,67238.94
2023-02-28T11:33:27.950Z,67207.09
2023-02-28T11:35:59.469Z,67201.47
2023-02-28T11:38:26.979Z,67199.56
2023-02-28T11:41:00.358Z,67207.66
2023-02-28T11:43:45.796Z,67231.81
2023-02-28T11:46:15.703Z,67223.94
2023-02-28T11:49:01.206Z,67218.31
2023-02-28T11:51:35.495Z,67247.56
2023-02-28T11:54:08.499Z,67263.31
2023-02-28T11:56:38.197Z,67291.78
2023-02-28T11:59:11.158Z,67321.94
2023-02-28T12:01:57.560Z,67333.81
2023-02-28T12:04:27.728Z,67313.91
2023-02-28T12:07:00.502Z,67256.97
2023-02-28T12:09:44.912Z,67251.16
2023-02-28T12:12:19.130Z,67252.06
2023-02-28T12:15:09.004Z,67224.16
2023-02-28T12:17:56.103Z,67236.31
2023-02-28T12:20:31.933Z,67260.72
2023-02-28T12:23:13.129Z,67306.03
2023-02-28T12:25:45.853Z,67324.03
2023-02-28T12:28:15.643Z,67353.88
2023-02-28T12:30:53.203Z,67374.88
2023-02-28T12:33:23.720Z,67345.41
2023-02-28T12:35:53.150Z,67333.25
2023-02-28T12:38:22.178Z,67337.34
2023-02-28T12:40:55.709Z,67344.13
2023-02-28T12:43:23.628Z,67338.88
2023-02-28T12:46:02.621Z,67347.47
2023-02-28T12:48:47.666Z,67349.94
2023-02-28T12:51:16.526Z,67348.59
2023-02-28T12:53:55.393Z,67345.06
2023-02-28T12:56:44.894Z,67350.13
2023-02-28T12:59:18.949Z,67343.38
2023-02-28T13:02:03.272Z,67355.56
2023-02-28T13:04:41.178Z,67359.28
2023-02-28T13:07:14.010Z,67339.84
2023-02-28T13:09:41.133Z,67357.81
2023-02-28T13:12:28.383Z,67350.69
2023-02-28T13:15:08.465Z,67339.59
2023-02-28T13:17:35.486Z,67347.09
2023-02-28T13:20:02.599Z,67347.09
2023-02-28T13:22:36.365Z,67353.66
2023-02-28T13:25:03.319Z,67367.56
2023-02-28T13:27:35.854Z,67385.94
2023-02-28T13:30:22.760Z,67356.88
2023-02-28T13:33:10.011Z,67356.47
2023-02-28T13:35:39.188Z,67320.47
2023-02-28T13:38:20.639Z,67311.44
2023-02-28T13:40:47.756Z,67319.53
2023-02-28T13:43:22.571Z,67342.06
2023-02-28T13:46:12.096Z,67348.00
2023-02-28T13:48:40.408Z,67353.88
2023-02-28T13:51:33.697Z,67354.63
2023-02-28T13:54:23.304Z,67344.66
2023-02-28T13:57:04.774Z,67347.09
2023-02-28T13:59:39.035Z,67339.22
2023-02-28T14:02:25.024Z,67358.34
2023-02-28T14:05:10.332Z,67333.59
2023-02-28T14:07:50.447Z,67338.13
2023-02-28T14:10:24.237Z,67332.13
2023-02-28T14:12:59.310Z,67344.84
2023-02-28T14:15:44.868Z,67357.25
2023-02-28T14:18:14.716Z,67365.88
2023-02-28T14:20:42.170Z,67358.56
2023-02-28T14:23:25.803Z,67360.41
2023-02-28T14:26:23.284Z,67353.88
2023-02-28T14:28:50.245Z,67359.84
2023-02-28T14:31:25.791Z,67354.78
2023-02-28T14:34:04.704Z,67350.13
2023-02-28T14:36:37.503Z,67341.69
2023-02-28T14:39:12.323Z,67341.47
2023-02-28T14:41:40.812Z,67340.56
2023-02-28T14:44:26.168Z,67336.97
2023-02-28T14:47:01.636Z,67319.53
2023-02-28T14:49:29.849Z,67300.63
2023-02-28T14:52:15.449Z,67301.56
2023-02-28T14:55:09.093Z,67292.91
2023-02-28T14:57:42.151Z,67302.66
2023-02-28T15:00:18.526Z,67308.09
2023-02-28T15:02:45.925Z,67311.66
2023-02-28T15:05:18.964Z,67312.03
2023-02-28T15:07:50.232Z,67308.50
2023-02-28T15:10:26.793Z,67309.78
2023-02-28T15:12:59.978Z,67301.97
2023-02-28T15:16:05.413Z,67310.19
2023-02-28T15:18:43.127Z,67296.13
2023-02-28T15:21:19.154Z,67299.88
2023-02-28T15:24:00.333Z,67289.16
2023-02-28T15:26:42.000Z,67277.56
2023-02-28T15:29:15.695Z,67261.81
2023-02-28T15:31:58.601Z,67266.13
2023-02-28T15:34:42.872Z,67258.81
2023-02-28T15:37:47.760Z,67255.63
2023-02-28T15:40:25.252Z,67237.06
2023-02-28T15:43:19.664Z,67237.66
2023-02-28T15:46:11.323Z,67228.09
2023-02-28T15:48:45.030Z,67250.56
2023-02-28T15:51:23.336Z,67247.56
2023-02-28T15:53:59.363Z,67241.00
2023-02-28T15:56:35.310Z,67261.41
2023-02-28T15:59:25.662Z,67240.03
2023-02-28T16:02:11.122Z,67228.44
2023-02-28T16:04:54.950Z,67240.59
2023-02-28T16:07:22.041Z,67247.34
2023-02-28T16:09:49.218Z,67255.78
2023-02-28T16:12:16.475Z,67223.38
2023-02-28T16:14:43.996Z,67220.56
2023-02-28T16:17:24.191Z,67216.44
2023-02-28T16:19:51.549Z,67213.84
2023-02-28T16:22:18.644Z,67217.41
2023-02-28T16:24:45.807Z,67226.00
2023-02-28T16:27:53.116Z,67216.44
2023-02-28T16:30:24.521Z,67195.88
2023-02-28T16:32:52.685Z,67187.63
2023-02-28T16:35:20.908Z,67177.31
2023-02-28T16:37:48.784Z,67165.50
2023-02-28T16:40:22.391Z,67148.66
2023-02-28T16:42:57.547Z,67142.13
2023-02-28T16:45:28.203Z,67140.38
2023-02-28T16:47:56.468Z,67124.13
2023-02-28T16:50:29.039Z,67119.88
2023-02-28T16:52:56.965Z,67121.13
2023-02-28T16:55:27.598Z,67114.19
2023-02-28T16:57:57.464Z,67103.50
2023-02-28T17:00:25.741Z,67095.09
2023-02-28T17:02:53.136Z,67088.00
2023-02-28T17:05:20.573Z,67087.78
2023-02-28T17:07:49.044Z,67091.56
2023-02-28T17:10:20.458Z,67098.13
2023-02-28T17:12:47.703Z,67108.78
2023-02-28T17:15:16.743Z,67105.75
2023-02-28T17:17:47.445Z,67096.97
2023-02-28T17:20:23.383Z,67101.47
2023-02-28T17:22:51.826Z,67096.22
2023-02-28T17:25:19.285Z,67089.13
2023-02-28T17:27:46.673Z,67088.56
2023-02-28T17:30:22.632Z,67096.97
2023-02-28T17:32:49.787Z,67103.38
2023-02-28T17:35:17.438Z,67108.06
2023-02-28T17:37:51.397Z,67106.31
2023-02-28T17:40:28.719Z,67047.22
2023-02-28T17:42:57.720Z,67079.59
2023-02-28T17:45:25.151Z,67075.09
2023-02-28T17:47:52.594Z,67078.25
2023-02-28T17:50:22.445Z,67095.09
2023-02-28T17:52:51.304Z,67093.97
2023-02-28T17:55:20.159Z,67101.47
2023-02-28T17:57:47.545Z,67107.44
2023-02-28T18:00:16.901Z,67041.63
2023-02-28T18:02:44.941Z,67075.09
2023-02-28T18:05:12.473Z,67073.75
2023-02-28T18:07:43.051Z,67030.38
2023-02-28T18:10:20.482Z,67084.63
2023-02-28T18:12:52.692Z,67084.06
2023-02-28T18:15:22.024Z,67086.88
2023-02-28T18:17:50.366Z,67092.16
2023-02-28T18:20:20.263Z,67082.97
2023-02-28T18:22:54.964Z,67077.13
2023-02-28T18:25:23.040Z,67064.63
2023-02-28T18:27:59.294Z,67072.09
2023-02-28T18:30:32.346Z,67069.81
2023-02-28T18:33:00.401Z,67061.59
2023-02-28T18:35:39.051Z,67063.50
2023-02-28T18:38:19.207Z,67068.47
2023-02-28T18:41:01.360Z,67050.41
2023-02-28T18:43:33.207Z,67040.50
2023-02-28T18:46:07.630Z,67041.63
2023-02-28T18:48:35.646Z,67009.06
2023-02-28T18:51:15.298Z,67074.53
2023-02-28T18:53:43.319Z,67046.13
2023-02-28T18:56:15.568Z,67033.75
2023-02-28T18:58:43.061Z,67029.06
2023-02-28T19:01:30.540Z,67019.88
2023-02-28T19:04:04.686Z,66964.22
2023-02-28T19:06:33.685Z,67002.13
2023-02-28T19:09:02.345Z,67031.09
2023-02-28T19:11:31.205Z,67026.47
2023-02-28T19:14:01.197Z,67020.09
2023-02-28T19:16:31.734Z,67025.47
2023-02-28T19:19:01.626Z,67022.34
2023-02-28T19:21:29.329Z,67012.78
2023-02-28T19:23:56.431Z,67008.31
2023-02-28T19:26:27.255Z,67012.78
2023-02-28T19:28:54.569Z,67006.28
2023-02-28T19:31:27.447Z,67014.13
2023-02-28T19:33:57.254Z,67012.59
2023-02-28T19:36:33.156Z,67008.88
2023-02-28T19:39:05.032Z,66995.94
2023-02-28T19:41:32.270Z,66985.84
2023-02-28T19:44:01.721Z,66983.97
2023-02-28T19:46:29.312Z,66978.34
2023-02-28T19:49:01.532Z,66971.06
2023-02-28T19:51:52.459Z,66962.31
2023-02-28T19:54:23.537Z,66956.34
2023-02-28T19:56:51.357Z,66959.50
2023-02-28T19:59:35.720Z,66958.59
2023-02-28T20:04:55.361Z,66943.25
2023-02-28T20:07:23.738Z,66943.00
2023-02-28T20:09:53.855Z,66943.00
2023-02-28T20:12:24.377Z,66938.97
2023-02-28T20:14:55.104Z,66937.84
2023-02-28T20:17:25.925Z,66942.09
2023-02-28T20:19:53.211Z,66944.34
2023-02-28T20:22:20.352Z,66946.94
2023-02-28T20:24:50.604Z,66952.53
2023-02-28T20:27:27.336Z,66949.41
2023-02-28T20:29:54.502Z,66947.16
2023-02-28T20:32:21.721Z,66941.31
2023-02-28T20:34:50.401Z,66923.25
2023-02-28T20:37:20.562Z,66923.94
2023-02-28T20:39:49.767Z,66911.47
2023-02-28T20:42:19.551Z,66921.94
2023-02-28T20:44:46.860Z,66919.66
2023-02-28T20:47:14.387Z,66914.41
2023-02-28T20:49:51.597Z,66915.06
2023-02-28T20:52:19.575Z,66909.94
2023-02-28T20:54:49.628Z,66923.41
2023-02-28T20:57:28.839Z,66918.56
2023-02-28T21:00:01.782Z,66915.53
2023-02-28T21:02:29.513Z,66902.53
2023-02-28T21:04:56.668Z,66907.13
2023-02-28T21:07:28.281Z,66891.66
2023-02-28T21:09:58.580Z,66897.13
2023-02-28T21:12:37.273Z,66894.44
2023-02-28T21:15:05.603Z,66893.53
2023-02-28T21:17:32.779Z,66894.25
2023-02-28T21:19:59.844Z,66901.53
2023-02-28T21:22:29.936Z,66895.00
2023-02-28T21:25:09.095Z,66881.78
2023-02-28T21:27:46.531Z,66904.31
2023-02-28T21:30:16.675Z,66889.63
2023-02-28T21:32:44.258Z,66889.63
2023-02-28T21:35:11.605Z,66900.41
2023-02-28T21:37:47.450Z,66890.88
2023-02-28T21:40:14.760Z,66899.84
2023-02-28T21:42:42.147Z,66889.41
2023-02-28T21:45:09.469Z,66889.41
2023-02-28T21:47:36.679Z,66873.16
2023-02-28T21:50:04.057Z,66869.22
2023-02-28T21:52:31.385Z,66876.28
2023-02-28T21:54:58.713Z,66877.41
2023-02-28T21:57:25.871Z,66880.00
2023-02-28T21:59:52.988Z,66868.44
2023-02-28T22:02:20.165Z,66834.19
2023-02-28T22:04:47.357Z,66877.41
2023-02-28T22:07:14.686Z,66875.63
2023-02-28T22:09:44.037Z,66864.19
2023-02-28T22:12:11.728Z,66861.16
2023-02-28T22:14:40.314Z,66853.19
2023-02-28T22:17:07.715Z,66851.84
2023-02-28T22:19:36.050Z,66849.41
2023-02-28T22:22:03.435Z,66839.75
2023-02-28T22:24:30.612Z,66800.03
2023-02-28T22:26:58.677Z,66844.00
2023-02-28T22:29:26.468Z,66834.50
2023-02-28T22:31:53.720Z,66830.56
2023-02-28T22:34:20.891Z,66830.00
2023-02-28T22:36:48.171Z,66831.47
2023-02-28T22:39:16.398Z,66817.13
2023-02-28T22:41:43.782Z,66815.22
2023-02-28T22:44:11.538Z,66814.66
2023-02-28T22:46:39.057Z,66816.91
2023-02-28T22:49:06.660Z,66777.06
2023-02-28T22:51:35.543Z,66820.25
2023-02-28T22:54:04.473Z,66830.91
2023-02-28T22:56:32.332Z,66833.00
2023-02-28T22:59:01.024Z,66834.50
2023-02-28T23:01:33.959Z,66828.66
2023-02-28T23:04:02.821Z,66822.50
2023-02-28T23:06:33.907Z,66816.34
2023-02-28T23:09:05.866Z,66810.97
2023-02-28T23:11:38.003Z,66805.38
2023-02-28T23:14:09.378Z,66802.91
2023-02-28T23:16:51.074Z,66795.84
2023-02-28T23:19:22.531Z,66795.06
2023-02-28T23:21:52.841Z,66789.88
2023-02-28T23:24:22.148Z,66809.06
2023-02-28T23:26:52.442Z,66799.97
2023-02-28T23:29:21.458Z,66794.38
2023-02-28T23:31:50.586Z,66784.41
2023-02-28T23:34:26.718Z,66776.22
2023-02-28T23:36:55.107Z,66783.50
2023-02-28T23:39:23.296Z,66765.81
2023-02-28T23:41:52.904Z,66756.63
2023-02-28T23:44:21.103Z,66756.97
2023-02-28T23:46:51.447Z,66777.91
2023-02-28T23:49:20.277Z,66777.69
2023-02-28T23:51:51.937Z,66766.16
2023-02-28T23:54:22.038Z,66764.81
2023-02-28T23:56:49.248Z,66779.25
2023-02-28T23:59:16.729Z,66780.91
